Time;durP1;ratioP1;P1;durP2;ratioP2;P2;SDS_P1;SDS_P2;PMS_P1;PMS_P2;Temp;Humidity;BMP_temperature;BMP_pressure;BME280_temperature;BME280_humidity;BME280_pressure;Samples;Min_cycle;Max_cycle;Signal;HPM_P1;HPM_P2
2022/02/15 00:01:40;;;;;;;21.82;10.20;;;;;;;-2.56;87.77;100943.95;1674256;85;21086;-67
2022/02/15 00:04:08;;;;;;;18.57;8.33;;;;;;;-2.52;87.28;100952.67;1684688;84;21097;-68
2022/02/15 00:06:35;;;;;;;23.52;10.55;;;;;;;-2.48;87.50;100945.48;1675067;85;21397;-65
2022/02/15 00:09:02;;;;;;;21.25;9.43;;;;;;;-2.49;86.84;100938.14;1679652;85;21071;-65
2022/02/15 00:11:28;;;;;;;24.23;11.18;;;;;;;-2.49;86.95;100939.84;1674728;85;21153;-65
2022/02/15 00:13:55;;;;;;;25.25;10.68;;;;;;;-2.51;86.85;100947.53;1674616;85;21066;-66
2022/02/15 00:16:21;;;;;;;24.02;9.20;;;;;;;-2.55;87.09;100937.56;1674660;85;21078;-67
2022/02/15 00:18:48;;;;;;;25.20;9.85;;;;;;;-2.56;87.50;100938.80;1674577;85;21039;-66
2022/02/15 00:21:14;;;;;;;25.32;10.45;;;;;;;-2.57;87.12;100931.91;1675044;85;21087;-66
2022/02/15 00:23:40;;;;;;;21.45;9.98;;;;;;;-2.57;87.76;100931.91;1674409;85;21143;-68
2022/02/15 00:26:07;;;;;;;21.95;10.13;;;;;;;-2.58;87.35;100937.87;1674764;85;21078;-69
2022/02/15 00:28:34;;;;;;;15.50;7.08;;;;;;;-2.60;87.41;100933.08;1674662;85;21619;-68
2022/02/15 00:31:01;;;;;;;20.12;10.03;;;;;;;-2.61;88.85;100934.79;1674513;85;21593;-69
2022/02/15 00:33:27;;;;;;;19.87;8.50;;;;;;;-2.66;87.89;100928.63;1674489;85;21144;-68
2022/02/15 00:35:56;;;;;;;20.77;9.65;;;;;;;-2.65;90.86;100933.36;1674841;85;21130;-68
2022/02/15 00:38:23;;;;;;;24.77;11.22;;;;;;;-2.70;90.13;100934.94;1714417;83;21521;-68
2022/02/15 00:40:49;;;;;;;19.27;8.25;;;;;;;-2.74;89.39;100921.07;1694452;83;21490;-68
2022/02/15 00:43:16;;;;;;;21.07;10.00;;;;;;;-2.74;91.38;100923.65;1702917;84;21086;-68
2022/02/15 00:45:43;;;;;;;17.90;8.75;;;;;;;-2.80;89.63;100924.36;1703229;83;21157;-66
2022/02/15 00:48:09;;;;;;;21.40;9.25;;;;;;;-2.79;91.17;100921.36;1702889;84;21075;-67
2022/02/15 00:50:36;;;;;;;24.47;10.28;;;;;;;-2.81;91.33;100920.01;1703134;83;21153;-68
2022/02/15 00:53:02;;;;;;;18.42;8.13;;;;;;;-2.82;90.37;100923.43;1682900;84;21577;-68
2022/02/15 00:55:29;;;;;;;21.90;8.48;;;;;;;-2.82;91.86;100926.02;1703121;84;21065;-67
2022/02/15 00:57:55;;;;;;;23.20;9.10;;;;;;;-2.85;91.52;100923.35;1703063;84;21026;-67
2022/02/15 01:00:22;;;;;;;18.80;8.40;;;;;;;-2.88;92.10;100915.50;1702545;84;22333;-68
2022/02/15 01:02:49;;;;;;;23.87;8.35;;;;;;;-2.91;93.21;100916.71;1702844;84;21054;-68
2022/02/15 01:05:16;;;;;;;19.67;8.40;;;;;;;-2.90;91.62;100917.16;1703102;84;21577;-67
2022/02/15 01:08:33;;;;;;;22.90;9.78;;;;;;;-2.88;91.38;100915.50;1703280;84;21121;-68
2022/02/15 01:10:59;;;;;;;22.52;8.83;;;;;;;-2.85;91.54;100922.45;1702975;84;21085;-69
2022/02/15 01:13:26;;;;;;;20.68;7.72;;;;;;;-2.84;91.25;100911.33;1703025;84;21823;-67
2022/02/15 01:15:53;;;;;;;19.98;8.65;;;;;;;-2.85;91.67;100919.48;1702963;84;21046;-68
2022/02/15 01:18:20;;;;;;;27.17;10.32;;;;;;;-2.88;91.60;100907.77;1702886;84;21054;-67
2022/02/15 01:20:47;;;;;;;19.80;9.13;;;;;;;-2.92;91.96;100905.05;1702525;84;21550;-68
2022/02/15 01:23:14;;;;;;;21.27;9.68;;;;;;;-2.93;92.53;100900.33;1702622;83;21133;-68
2022/02/15 01:25:42;;;;;;;19.82;9.65;;;;;;;-3.00;91.91;100904.84;1788699;80;21144;-67
2022/02/15 01:28:08;;;;;;;27.15;10.35;;;;;;;-3.08;93.36;100900.75;1708574;82;21057;-67
2022/02/15 01:30:36;;;;;;;23.75;9.98;;;;;;;-3.13;93.01;100894.98;1794707;79;21078;-67
2022/02/15 01:33:03;;;;;;;21.70;9.05;;;;;;;-3.17;94.02;100901.34;1788713;80;21034;-69
2022/02/15 01:35:31;;;;;;;23.05;9.65;;;;;;;-3.19;95.73;100898.25;1788752;80;21043;-67
2022/02/15 01:37:58;;;;;;;15.83;8.28;;;;;;;-3.19;95.45;100897.83;1788568;80;21179;-67
2022/02/15 01:40:25;;;;;;;20.75;8.83;;;;;;;-3.18;97.66;100895.70;1698582;84;21098;-67
2022/02/15 01:42:53;;;;;;;22.27;10.72;;;;;;;-3.18;97.00;100894.83;1741034;80;21034;-68
2022/02/15 01:45:20;;;;;;;21.70;9.13;;;;;;;-3.18;96.98;100903.43;1723409;82;21034;-66
2022/02/15 01:47:47;;;;;;;21.17;10.28;;;;;;;-3.19;99.28;100893.97;1744092;82;21050;-66
2022/02/15 01:50:14;;;;;;;22.62;9.60;;;;;;;-3.18;98.16;100893.12;1745145;80;21560;-66
2022/02/15 01:52:41;;;;;;;21.40;9.60;;;;;;;-3.14;98.18;100894.53;1746468;82;21467;-67
2022/02/15 01:55:11;;;;;;;19.45;9.30;;;;;;;-3.08;98.65;100894.31;1690598;83;21120;-67
2022/02/15 01:57:38;;;;;;;20.02;8.85;;;;;;;-3.05;97.48;100899.97;1717267;83;21092;-66
2022/02/15 02:00:15;;;;;;;23.42;10.50;;;;;;;-3.02;97.69;100897.05;1698836;82;21069;-67
2022/02/15 02:02:43;;;;;;;16.07;7.30;;;;;;;-3.03;97.57;100900.47;1701935;84;21120;-67
2022/02/15 02:07:50;;;;;;;19.42;8.85;;;;;;;-3.02;98.45;100900.05;1657799;84;21059;-68
2022/02/15 02:10:16;;;;;;;21.07;8.63;;;;;;;-3.04;98.41;100893.97;1692722;84;21675;-67
2022/02/15 02:12:43;;;;;;;20.12;9.13;;;;;;;-3.04;98.57;100902.56;1692669;84;21100;-67
2022/02/15 02:15:20;;;;;;;28.57;10.95;;;;;;;-3.02;100.00;100897.47;1692934;84;21944;-66
2022/02/15 02:17:51;;;;;;;19.10;8.90;;;;;;;-3.02;99.23;100901.34;1675199;84;21078;-67
2022/02/15 02:20:17;;;;;;;23.52;10.48;;;;;;;-3.04;99.64;100903.86;1692557;84;21585;-67
2022/02/15 02:22:44;;;;;;;21.93;9.05;;;;;;;-3.05;99.41;100901.25;1692473;84;21092;-67
2022/02/15 02:25:14;;;;;;;25.60;10.70;;;;;;;-3.09;99.46;100900.69;1692666;84;21059;-67
2022/02/15 02:27:41;;;;;;;24.07;11.28;;;;;;;-3.09;100.00;100894.25;1692526;84;21117;-68
2022/02/15 02:30:10;;;;;;;27.25;11.85;;;;;;;-3.09;100.00;100899.41;1692460;84;21501;-67
2022/02/15 02:32:40;;;;;;;22.65;9.68;;;;;;;-3.09;100.00;100908.00;1692529;84;21024;-67
2022/02/15 02:35:09;;;;;;;25.23;10.70;;;;;;;-3.08;100.00;100901.14;1666786;84;21080;-66
2022/02/15 02:37:37;;;;;;;26.70;11.00;;;;;;;-3.06;100.00;100902.06;1693178;84;21049;-66
2022/02/15 02:40:06;;;;;;;24.00;10.30;;;;;;;-3.03;100.00;100902.17;1692908;84;21118;-68
2022/02/15 02:42:35;;;;;;;25.50;10.55;;;;;;;-3.07;100.00;100903.77;1693234;84;21656;-66
2022/02/15 02:45:08;;;;;;;19.87;10.23;;;;;;;-3.09;100.00;100894.25;1696338;84;21046;-67
2022/02/15 02:47:36;;;;;;;19.85;9.20;;;;;;;-3.05;100.00;100901.25;1697701;84;21052;-66
2022/02/15 02:50:05;;;;;;;23.90;9.65;;;;;;;-3.09;100.00;100905.84;1698371;83;21055;-67
2022/02/15 02:52:33;;;;;;;24.27;8.73;;;;;;;-3.10;100.00;100900.25;1704338;83;21099;-68
2022/02/15 02:55:02;;;;;;;24.92;8.28;;;;;;;-3.08;100.00;100899.46;1707266;84;21495;-68
2022/02/15 02:57:28;;;;;;;19.77;9.33;;;;;;;-3.06;100.00;100903.35;1708757;84;21040;-67
2022/02/15 02:59:56;;;;;;;23.42;9.18;;;;;;;-3.05;100.00;100897.39;1703208;84;21145;-67
2022/02/15 03:02:24;;;;;;;22.95;10.80;;;;;;;-3.02;100.00;100902.63;1693077;84;21069;-68
2022/02/15 03:04:51;;;;;;;19.95;9.73;;;;;;;-2.99;100.00;100906.57;1676197;85;21621;-69
2022/02/15 03:07:17;;;;;;;20.92;10.85;;;;;;;-3.02;100.00;100906.48;1686720;84;21129;-69
2022/02/15 03:09:44;;;;;;;19.77;9.83;;;;;;;-3.06;100.00;100904.64;1690100;84;21582;-69
2022/02/15 03:12:12;;;;;;;23.40;9.15;;;;;;;-3.07;100.00;100905.48;1694145;84;21152;-73
2022/02/15 03:14:42;;;;;;;21.48;8.90;;;;;;;-3.09;100.00;100907.13;1686435;84;21065;-67
2022/02/15 03:17:09;;;;;;;18.82;9.70;;;;;;;-3.13;100.00;100907.86;1678857;84;21101;-67
2022/02/15 03:19:35;;;;;;;23.15;8.90;;;;;;;-3.13;100.00;100905.28;1674607;84;21059;-67
2022/02/15 03:22:04;;;;;;;28.40;10.78;;;;;;;-3.12;100.00;100902.77;1675614;84;21145;-68
2022/02/15 03:24:33;;;;;;;15.32;5.83;;;;;;;-3.09;100.00;100901.98;1677506;84;21149;-66
2022/02/15 03:27:00;;;;;;;20.32;8.20;;;;;;;-3.10;100.00;100898.95;1674613;85;21136;-67
2022/02/15 03:29:27;;;;;;;19.27;8.23;;;;;;;-3.10;100.00;100900.25;1669306;85;21102;-67
2022/02/15 03:31:54;;;;;;;19.10;8.70;;;;;;;-3.08;100.00;100898.56;1727980;82;21132;-67
2022/02/15 03:34:21;;;;;;;22.73;9.00;;;;;;;-3.08;100.00;100907.19;1744465;82;21065;-67
2022/02/15 03:36:47;;;;;;;20.08;9.30;;;;;;;-3.08;100.00;100902.42;1744577;82;21490;-67
2022/02/15 03:39:16;;;;;;;23.80;9.75;;;;;;;-3.09;100.00;100899.41;1722944;82;21045;-67
2022/02/15 03:44:32;;;;;;;26.95;11.10;;;;;;;-3.09;100.00;100901.98;1714807;83;21053;-68
2022/02/15 03:47:00;;;;;;;27.35;11.85;;;;;;;-3.14;100.00;100906.12;1716318;82;21097;-68
2022/02/15 03:49:29;;;;;;;24.43;11.22;;;;;;;-3.20;100.00;100911.55;1713938;83;21056;-68
2022/02/15 03:51:56;;;;;;;29.30;12.18;;;;;;;-3.27;100.00;100910.00;1714725;81;21033;-68
2022/02/15 03:54:23;;;;;;;23.18;11.33;;;;;;;-3.34;100.00;100912.80;1720225;82;21124;-68
2022/02/15 03:56:51;;;;;;;21.75;10.68;;;;;;;-3.38;100.00;100905.83;1744500;82;21097;-69
2022/02/15 03:59:19;;;;;;;22.45;11.00;;;;;;;-3.43;100.00;100908.25;1744114;82;21254;-69
2022/02/15 04:01:47;;;;;;;29.60;11.68;;;;;;;-3.49;100.00;100907.17;1716339;82;21120;-68
2022/02/15 04:04:14;;;;;;;19.40;9.25;;;;;;;-3.55;100.00;100908.25;1721603;82;21502;-70
2022/02/15 04:06:40;;;;;;;26.07;11.25;;;;;;;-3.58;100.00;100905.17;1725247;82;21037;-71
2022/02/15 04:09:07;;;;;;;23.35;11.40;;;;;;;-3.59;100.00;100917.18;1714185;82;22419;-72
2022/02/15 04:11:36;;;;;;;22.40;9.70;;;;;;;-3.55;100.00;100918.55;1744330;82;21061;-71
2022/02/15 04:14:03;;;;;;;23.73;10.03;;;;;;;-3.59;100.00;100919.75;1715059;82;21073;-71
2022/02/15 04:16:31;;;;;;;22.65;9.35;;;;;;;-3.57;100.00;100912.47;1714189;83;21080;-70
2022/02/15 04:18:58;;;;;;;22.80;11.50;;;;;;;-3.55;100.00;100913.41;1719916;81;21119;-72
2022/02/15 04:21:24;;;;;;;28.77;11.80;;;;;;;-3.53;100.00;100914.33;1718175;82;21046;-70
2022/02/15 04:23:52;;;;;;;24.60;10.80;;;;;;;-3.54;100.00;100916.42;1721325;82;21131;-70
2022/02/15 04:26:19;;;;;;;23.98;11.03;;;;;;;-3.55;100.00;100915.98;1727308;81;21062;-70
2022/02/15 04:28:46;;;;;;;28.98;10.18;;;;;;;-3.57;100.00;100915.92;1674113;85;21045;-71
2022/02/15 04:31:16;;;;;;;;;;;;;;;-3.61;100.00;100923.11;1692441;84;21141;-71
2022/02/15 04:33:43;;;;;;;27.05;11.30;;;;;;;-3.61;100.00;100919.24;1693301;84;20215;-71
2022/02/15 04:36:10;;;;;;;28.20;10.93;;;;;;;-3.61;100.00;100923.97;1702380;84;21573;-70
2022/02/15 04:38:37;;;;;;;21.97;11.00;;;;;;;-3.59;100.00;100922.33;1702788;84;21082;-71
2022/02/15 04:41:05;;;;;;;21.90;9.98;;;;;;;-3.54;100.00;100925.44;1685935;84;21062;-71
2022/02/15 04:43:35;;;;;;;26.30;11.30;;;;;;;-3.60;100.00;100926.13;1679854;85;21070;-71
2022/02/15 04:46:03;;;;;;;29.33;13.23;;;;;;;-3.66;100.00;100920.38;1676962;84;21125;-71
2022/02/15 04:48:30;;;;;;;32.23;11.03;;;;;;;-3.72;100.00;100922.73;1686978;84;21039;-72
2022/02/15 04:50:56;;;;;;;31.63;13.37;;;;;;;-3.74;100.00;100922.23;1691229;83;21106;-72
2022/02/15 04:53:24;;;;;;;25.87;11.13;;;;;;;-3.75;100.00;100921.36;1686194;84;21101;-71
2022/02/15 04:55:50;;;;;;;30.03;11.33;;;;;;;-3.78;100.00;100923.80;1679376;84;22022;-72
2022/02/15 04:58:17;;;;;;;30.97;13.80;;;;;;;-3.80;100.00;100919.02;1689076;84;21073;-71
2022/02/15 05:00:46;;;;;;;23.85;10.93;;;;;;;-3.83;100.00;100919.79;1691158;84;21633;-71
2022/02/15 05:03:17;;;;;;;29.57;12.00;;;;;;;-3.87;100.00;100932.08;1679837;84;21585;-71
2022/02/15 05:05:45;;;;;;;28.60;11.40;;;;;;;-3.90;100.00;100931.13;1684957;84;21106;-71
2022/02/15 05:08:13;;;;;;;27.20;12.60;;;;;;;-3.93;100.00;100940.03;1685875;84;21546;-72
2022/02/15 05:10:41;;;;;;;35.00;14.55;;;;;;;-3.96;100.00;100938.62;1686553;84;21062;-70
2022/02/15 05:13:08;;;;;;;31.30;12.82;;;;;;;-4.00;100.00;100942.80;1674826;85;21756;-71
2022/02/15 05:15:39;;;;;;;41.85;15.08;;;;;;;-4.02;100.00;100950.45;1687551;84;21593;-70
2022/02/15 05:18:10;;;;;;;37.03;15.47;;;;;;;-3.99;100.00;100947.53;1700962;84;21518;-71
2022/02/15 05:20:39;;;;;;;34.08;14.55;;;;;;;-3.97;100.00;100948.05;1674932;85;22427;-71
2022/02/15 05:23:07;;;;;;;34.70;14.73;;;;;;;-3.96;100.00;100943.77;1674736;84;21117;-71
2022/02/15 05:25:35;;;;;;;35.53;14.63;;;;;;;-3.96;100.00;100945.05;1676831;84;21062;-71
2022/02/15 05:28:04;;;;;;;39.03;15.40;;;;;;;-3.90;100.00;100947.85;1689870;84;21037;-71
2022/02/15 05:30:31;;;;;;;45.97;17.87;;;;;;;-3.88;100.00;100950.06;1686615;84;21054;-71
2022/02/15 05:33:09;;;;;;;44.40;19.12;;;;;;;-3.84;100.00;100945.50;1683978;84;21138;-71
2022/02/15 05:35:37;;;;;;;41.83;17.07;;;;;;;-3.83;100.00;100945.53;1675317;84;21101;-71
2022/02/15 05:38:04;;;;;;;42.10;18.60;;;;;;;-3.79;100.00;100958.11;1692460;84;21222;-71
2022/02/15 05:40:33;;;;;;;46.30;20.20;;;;;;;-3.70;100.00;100954.56;1672260;85;21063;-71
2022/02/15 05:43:03;;;;;;;40.48;17.92;;;;;;;-3.66;100.00;100958.99;1675246;84;21137;-71
2022/02/15 05:45:30;;;;;;;44.30;19.62;;;;;;;-3.61;100.00;100960.02;1696000;84;21092;-71
2022/02/15 05:48:01;;;;;;;50.77;20.23;;;;;;;-3.54;100.00;100961.48;1686542;84;21110;-71
2022/02/15 05:53:19;;;;;;;42.35;19.25;;;;;;;-3.44;100.00;100963.56;1681801;84;21597;-71
2022/02/15 05:55:48;;;;;;;36.40;15.32;;;;;;;-3.38;100.00;100962.06;1680940;84;21102;-71
2022/02/15 05:58:16;;;;;;;41.40;18.30;;;;;;;-3.30;100.00;100953.29;1674061;85;21138;-71
2022/02/15 06:00:44;;;;;;;38.25;16.87;;;;;;;-3.23;100.00;100962.09;1714047;83;21334;-70
2022/02/15 06:05:56;;;;;;;38.33;16.50;;;;;;;-3.20;100.00;100954.06;1715437;83;20999;-71
2022/02/15 06:08:25;;;;;;;38.33;17.73;;;;;;;-3.22;100.00;100959.97;1715208;83;21052;-71
2022/02/15 06:10:53;;;;;;;45.20;18.15;;;;;;;-3.21;100.00;100951.43;1714936;83;21358;-71
2022/02/15 06:13:26;;;;;;;49.23;21.00;;;;;;;-2.83;100.00;100955.21;1714953;83;21040;-71
2022/02/15 06:15:54;;;;;;;44.90;20.10;;;;;;;-2.18;100.00;100951.50;1695112;83;21014;-70
2022/02/15 06:18:22;;;;;;;42.83;18.30;;;;;;;-1.48;100.00;100952.47;1714577;83;21042;-72
2022/02/15 06:20:51;;;;;;;33.78;15.25;;;;;;;-0.72;100.00;100951.23;1714913;82;21077;-70
2022/02/15 06:23:19;;;;;;;47.33;20.45;;;;;;;-0.10;100.00;100951.23;1715058;83;22161;-71
2022/02/15 06:25:46;;;;;;;38.53;18.45;;;;;;;0.29;100.00;100948.94;1715501;83;21057;-72
2022/02/15 06:28:13;;;;;;;32.50;16.93;;;;;;;0.69;98.56;100944.42;1715252;83;21526;-71
2022/02/15 06:30:41;;;;;;;33.05;16.80;;;;;;;1.21;96.72;100942.63;1714509;83;21542;-71
2022/02/15 06:33:10;;;;;;;39.95;17.98;;;;;;;1.76;91.98;100942.48;1714402;83;21018;-70
2022/02/15 06:35:38;;;;;;;35.33;16.32;;;;;;;2.39;90.40;100936.64;1715398;83;21144;-70
2022/02/15 06:38:06;;;;;;;32.85;16.15;;;;;;;3.09;87.79;100937.64;1714869;83;21062;-71
2022/02/15 06:40:33;;;;;;;30.57;16.05;;;;;;;3.75;81.04;100928.84;1715530;83;21092;-70
2022/02/15 06:43:01;;;;;;;110.90;38.85;;;;;;;4.23;76.22;100933.76;1715401;81;21093;-71
2022/02/15 06:45:28;;;;;;;34.58;16.82;;;;;;;4.66;69.62;100936.42;1715553;81;21506;-71
2022/02/15 06:47:55;;;;;;;27.80;14.23;;;;;;;5.05;70.44;100939.88;1715137;83;21107;-72
2022/02/15 06:50:21;;;;;;;27.02;14.33;;;;;;;5.35;67.16;100932.41;1715475;83;21092;-72
2022/02/15 06:52:51;;;;;;;35.83;17.12;;;;;;;5.74;62.92;100933.59;1719524;81;21057;-71
2022/02/15 06:55:19;;;;;;;32.25;17.65;;;;;;;6.09;64.33;100932.13;1747237;82;21018;-70
2022/02/15 06:57:46;;;;;;;32.58;18.50;;;;;;;6.44;63.19;100927.99;1720793;82;21069;-71
2022/02/15 07:00:15;;;;;;;26.57;14.75;;;;;;;6.98;62.23;100930.59;1747370;82;21518;-71
2022/02/15 07:02:42;;;;;;;29.27;15.70;;;;;;;7.32;59.67;100924.13;1747918;82;21092;-72
2022/02/15 07:05:11;;;;;;;38.65;20.12;;;;;;;7.60;55.26;100922.50;1747628;82;21025;-73
2022/02/15 07:07:39;;;;;;;26.15;14.70;;;;;;;7.81;56.68;100921.36;1748270;82;21088;-72
2022/02/15 07:10:09;;;;;;;23.60;13.35;;;;;;;8.16;55.29;100922.63;1747801;82;21066;-71
2022/02/15 07:12:37;;;;;;;24.55;12.80;;;;;;;8.34;52.48;100921.50;1744471;82;21192;-72
2022/02/15 07:15:10;;;;;;;25.80;12.80;;;;;;;8.54;54.71;100922.54;1746534;82;21069;-72
2022/02/15 07:17:42;;;;;;;24.75;12.18;;;;;;;8.66;51.02;100916.22;1747891;82;21033;-71
2022/02/15 07:20:11;;;;;;;21.25;12.03;;;;;;;8.69;48.03;100920.09;1748181;82;21009;-72
2022/02/15 07:22:55;;;;;;;29.40;17.65;;;;;;;8.53;49.71;100917.71;1660161;85;21160;-73
2022/02/15 07:25:23;;;;;;;28.73;13.72;;;;;;;8.82;48.85;100919.86;1719125;82;21140;-70
2022/02/15 07:27:51;;;;;;;24.98;13.65;;;;;;;9.10;47.46;100908.00;1745117;82;21058;-70
2022/02/15 07:30:17;;;;;;;23.47;12.33;;;;;;;9.33;47.09;100916.31;1749774;82;21124;-71
2022/02/15 07:32:48;;;;;;;35.90;16.60;;;;;;;9.58;43.29;100911.89;1747854;82;21061;-71
2022/02/15 07:35:15;;;;;;;23.05;13.72;;;;;;;9.79;45.84;100904.86;1747789;82;21047;-72
2022/02/15 07:37:48;;;;;;;22.93;11.97;;;;;;;10.01;43.62;100912.30;1747702;82;21058;-71
2022/02/15 07:40:19;;;;;;;21.15;12.18;;;;;;;10.18;41.98;100905.33;1747635;82;21046;-72
2022/02/15 07:42:46;;;;;;;23.25;11.73;;;;;;;10.27;43.61;100899.85;1747578;82;21101;-71
2022/02/15 07:45:17;;;;;;;19.98;11.85;;;;;;;10.22;40.77;100899.96;1747422;82;21566;-72
2022/02/15 07:47:41;;;;;;;24.65;12.23;;;;;;;10.01;41.38;100891.25;1747224;82;21691;-72
2022/02/15 07:50:09;;;;;;;23.25;12.37;;;;;;;10.23;40.93;100891.15;1747399;82;21506;-72
2022/02/15 07:52:35;;;;;;;38.45;18.87;;;;;;;10.45;40.12;100892.86;1745919;80;21101;-71
2022/02/15 07:55:01;;;;;;;36.88;18.55;;;;;;;10.52;40.47;100891.41;1715193;82;21022;-74
2022/02/15 07:57:28;;;;;;;30.40;14.83;;;;;;;10.53;40.23;100885.22;1714769;83;21073;-71
2022/02/15 07:59:57;;;;;;;31.05;17.10;;;;;;;10.64;40.59;100888.00;1714610;83;21112;-71
2022/02/15 08:02:24;;;;;;;30.82;16.62;;;;;;;10.67;40.69;100877.41;1714830;83;21115;-71
2022/02/15 08:04:51;;;;;;;22.90;13.22;;;;;;;10.97;39.69;100880.12;1714550;83;21060;-71
2022/02/15 08:07:18;;;;;;;22.87;12.95;;;;;;;11.24;39.91;100861.83;1714941;83;21348;-72
2022/02/15 08:09:45;;;;;;;20.12;12.50;;;;;;;11.58;38.56;100870.96;1714765;83;21144;-72
2022/02/15 08:12:17;;;;;;;22.48;12.30;;;;;;;11.74;38.53;100866.09;1715283;83;21625;-72
2022/02/15 08:14:41;;;;;;;20.37;11.83;;;;;;;12.08;38.27;100863.78;1714988;83;21151;-72
2022/02/15 08:17:08;;;;;;;38.23;19.15;;;;;;;12.45;37.31;100866.09;1715062;83;21123;-71
2022/02/15 08:19:34;;;;;;;17.65;9.15;;;;;;;12.84;36.08;100864.34;1715154;83;21375;-71
2022/02/15 08:22:02;;;;;;;14.38;9.70;;;;;;;13.03;35.27;100857.94;1715258;83;21058;-72
2022/02/15 08:24:29;;;;;;;13.38;8.73;;;;;;;12.89;34.52;100862.85;1715022;83;21164;-72
2022/02/15 08:26:57;;;;;;;16.77;8.98;;;;;;;12.87;34.67;100868.66;1714956;83;21213;-73
2022/02/15 08:29:24;;;;;;;16.62;8.63;;;;;;;12.61;34.13;100862.48;1714912;83;21566;-72
2022/02/15 08:31:51;;;;;;;28.00;13.53;;;;;;;12.57;34.54;100864.81;1715381;82;21065;-71
2022/02/15 08:34:18;;;;;;;20.88;10.53;;;;;;;12.74;34.29;100865.09;1714901;83;21616;-72
2022/02/15 08:36:44;;;;;;;17.77;9.85;;;;;;;12.73;34.15;100864.70;1715462;83;21021;-72
2022/02/15 08:39:11;;;;;;;13.93;7.42;;;;;;;12.90;34.78;100857.95;1715203;83;21277;-71
2022/02/15 08:41:38;;;;;;;14.47;7.20;;;;;;;12.73;32.94;100862.52;1715114;83;21053;-72
2022/02/15 08:44:05;;;;;;;16.20;7.20;;;;;;;11.68;34.43;100861.84;1714858;83;21045;-72
2022/02/15 08:46:32;;;;;;;12.85;7.10;;;;;;;11.41;36.74;100856.95;1715341;83;21022;-73
2022/02/15 08:48:59;;;;;;;15.63;7.30;;;;;;;11.65;35.68;100857.99;1714918;83;21058;-73
2022/02/15 08:51:27;;;;;;;13.78;8.38;;;;;;;11.58;35.39;100859.09;1715521;83;22055;-72
2022/02/15 08:53:54;;;;;;;10.95;6.87;;;;;;;11.68;34.91;100854.39;1717173;82;21002;-73
2022/02/15 08:56:21;;;;;;;17.23;8.10;;;;;;;11.72;34.51;100856.03;1717668;83;21056;-72
2022/02/15 08:58:48;;;;;;;44.77;21.20;;;;;;;11.85;35.79;100857.40;1717715;83;21010;-72
2022/02/15 09:01:15;;;;;;;15.70;7.08;;;;;;;11.69;34.69;100856.14;1717462;83;21292;-72
2022/02/15 09:03:41;;;;;;;15.93;7.33;;;;;;;11.78;34.69;100869.06;1717721;83;21134;-71
2022/02/15 09:06:10;;;;;;;11.55;7.35;;;;;;;11.42;35.18;100857.81;1717470;83;21021;-72
2022/02/15 09:08:37;;;;;;;14.45;7.37;;;;;;;11.10;35.33;100852.52;1717602;83;21037;-72
2022/02/15 09:11:04;;;;;;;15.13;7.50;;;;;;;10.95;36.14;100854.28;1717356;83;21045;-72
2022/02/15 09:13:31;;;;;;;15.40;8.35;;;;;;;10.86;35.66;100853.22;1717774;83;21041;-72
2022/02/15 09:15:58;;;;;;;13.38;7.15;;;;;;;11.03;35.82;100843.06;1717352;83;21503;-72
2022/02/15 09:18:25;;;;;;;14.63;7.25;;;;;;;11.26;35.65;100849.47;1717619;83;21057;-72
2022/02/15 09:20:51;;;;;;;17.30;7.90;;;;;;;11.03;35.27;100831.20;1717611;83;21088;-72
2022/02/15 09:23:18;;;;;;;14.47;7.37;;;;;;;10.74;36.06;100842.52;1717547;83;21037;-72
2022/02/15 09:25:44;;;;;;;14.53;8.00;;;;;;;10.62;35.92;100838.44;1717555;83;21120;-72
2022/02/15 09:28:11;;;;;;;14.30;7.55;;;;;;;10.41;36.79;100845.58;1717585;83;21508;-72
2022/02/15 09:30:38;;;;;;;17.90;7.67;;;;;;;10.14;37.85;100837.41;1717815;82;21006;-72
2022/02/15 09:33:05;;;;;;;29.70;7.17;;;;;;;10.52;37.64;100833.01;1718098;83;21564;-73
2022/02/15 09:35:31;;;;;;;14.05;6.80;;;;;;;10.77;35.85;100831.06;1717750;83;21100;-73
2022/02/15 09:38:01;;;;;;;15.60;7.70;;;;;;;10.74;37.53;100829.34;1736807;82;21050;-72
2022/02/15 09:40:30;;;;;;;19.17;7.15;;;;;;;10.83;36.68;100822.52;1747393;82;21783;-71
2022/02/15 09:42:56;;;;;;;14.98;7.60;;;;;;;10.98;35.89;100823.87;1747666;82;22123;-73
2022/02/15 09:45:22;;;;;;;25.20;9.85;;;;;;;10.58;36.34;100814.42;1747187;82;21100;-72
2022/02/15 09:47:49;;;;;;;14.70;7.62;;;;;;;10.84;37.32;100818.13;1747741;82;21022;-73
2022/02/15 09:50:15;;;;;;;10.32;6.55;;;;;;;11.18;36.32;100818.49;1747479;81;21038;-72
2022/02/15 09:52:46;;;;;;;19.35;9.33;;;;;;;11.22;35.42;100814.87;1750085;81;21129;-72
2022/02/15 09:55:10;;;;;;;15.75;8.38;;;;;;;11.48;36.27;100809.70;1760184;81;21054;-73
2022/02/15 09:57:37;;;;;;;27.15;11.38;;;;;;;11.61;35.26;100806.22;1761002;81;21578;-71
2022/02/15 10:00:05;;;;;;;24.75;10.50;;;;;;;11.70;36.03;100801.12;1761096;81;21097;-72
2022/02/15 10:02:35;;;;;;;20.15;9.68;;;;;;;11.95;36.29;100799.94;1760189;81;21645;-72
2022/02/15 10:07:15;;;;;;;23.30;11.10;;;;;;;12.33;35.70;100785.91;1814097;79;22794;-72
2022/02/15 10:09:42;;;;;;;16.75;8.63;;;;;;;12.38;35.20;100785.33;1769402;80;21100;-72
2022/02/15 10:12:14;;;;;;;18.92;10.32;;;;;;;12.30;34.98;100779.42;1705211;81;22278;-72
2022/02/15 10:14:42;;;;;;;26.02;12.40;;;;;;;12.14;35.44;100782.56;1758268;81;21084;-72
2022/02/15 10:17:13;;;;;;;24.23;11.78;;;;;;;12.10;35.55;100786.25;1758498;81;21084;-73
2022/02/15 10:19:40;;;;;;;22.58;10.32;;;;;;;12.20;35.77;100783.30;1758436;80;21471;-72
2022/02/15 10:22:07;;;;;;;18.55;9.90;;;;;;;12.32;35.60;100773.17;1758579;81;21065;-73
2022/02/15 10:24:39;;;;;;;16.55;8.55;;;;;;;12.60;34.74;100774.86;1758549;81;21138;-72
2022/02/15 10:27:08;;;;;;;15.78;9.13;;;;;;;12.67;35.04;100772.87;1758560;81;20958;-72
2022/02/15 10:29:40;;;;;;;16.90;9.05;;;;;;;12.65;34.73;100775.55;1758556;81;21095;-72
2022/02/15 10:32:11;;;;;;;14.63;8.70;;;;;;;12.65;34.84;100767.62;1758925;81;21092;-74
2022/02/15 10:34:56;;;;;;;16.32;9.25;;;;;;;12.67;34.69;100767.12;1759560;81;21120;-72
2022/02/15 10:37:28;;;;;;;16.40;9.40;;;;;;;12.44;35.19;100764.42;1758498;81;21114;-72
2022/02/15 10:39:57;;;;;;;18.55;9.85;;;;;;;12.60;35.00;100756.36;1758502;81;21025;-72
2022/02/15 10:42:26;;;;;;;15.20;8.90;;;;;;;12.73;34.65;100760.30;1728440;81;21100;-73
2022/02/15 10:45:03;;;;;;;14.25;7.92;;;;;;;12.65;34.62;100761.48;1758879;81;21537;-72
2022/02/15 10:47:34;;;;;;;18.15;9.00;;;;;;;12.42;34.90;100762.29;1758105;81;22237;-72
2022/02/15 10:50:07;;;;;;;16.30;8.70;;;;;;;12.02;36.07;100755.73;1759114;80;21084;-72
2022/02/15 10:52:34;;;;;;;13.40;7.83;;;;;;;11.93;35.52;100755.10;1758133;81;21545;-72
2022/02/15 10:55:00;;;;;;;16.23;8.30;;;;;;;11.94;36.80;100753.34;1758768;81;21077;-72
2022/02/15 10:57:28;;;;;;;19.70;9.40;;;;;;;12.08;35.97;100751.58;1759049;81;21036;-72
2022/02/15 10:59:56;;;;;;;15.90;8.80;;;;;;;12.39;35.77;100749.59;1759106;81;21065;-72
2022/02/15 11:02:26;;;;;;;15.00;6.58;;;;;;;12.39;36.28;100742.98;1758364;79;21120;-72
2022/02/15 11:04:55;;;;;;;9.58;4.45;;;;;;;12.39;32.41;100745.63;1758810;81;21691;-72
2022/02/15 11:07:27;;;;;;;9.68;4.83;;;;;;;11.65;30.85;100745.86;1749285;80;21052;-70
2022/02/15 11:10:08;;;;;;;10.90;4.03;;;;;;;11.02;32.15;100735.03;1747918;82;21077;-71
2022/02/15 11:12:52;;;;;;;10.53;4.90;;;;;;;10.38;32.74;100720.60;1748382;82;21977;-71
2022/02/15 11:15:23;;;;;;;9.40;4.47;;;;;;;10.02;33.40;100735.08;1722189;82;21140;-71
2022/02/15 11:18:00;;;;;;;7.58;4.00;;;;;;;10.05;33.43;100731.94;1747270;82;21025;-70
2022/02/15 11:20:50;;;;;;;9.53;4.95;;;;;;;9.93;33.26;100736.16;1746646;82;21386;-72
2022/02/15 11:23:00;;;;;;;11.33;5.15;;;;;;;9.91;33.71;100734.48;1743774;82;21061;-73
2022/02/15 11:25:33;;;;;;;9.63;5.17;;;;;;;9.66;34.12;100730.69;1747245;82;21116;-72
2022/02/15 11:28:15;;;;;;;11.35;5.08;;;;;;;9.64;34.01;100753.98;1747648;82;21134;-73
2022/02/15 11:30:56;;;;;;;10.38;5.50;;;;;;;9.48;35.16;100731.55;1747807;81;21045;-72